sensor_id;sensor_type;location;lat;lon;timestamp;temperature;humidity
40822;DHT22;26542;50.836;5.356;2023-02-01T00:02:09;6.90;99.90
40822;DHT22;26542;50.836;5.356;2023-02-01T00:04:34;6.90;99.90
40822;DHT22;26542;50.836;5.356;2023-02-01T00:07:00;6.90;99.90
40822;DHT22;26542;50.836;5.356;2023-02-01T00:09:26;6.90;99.90
40822;DHT22;26542;50.836;5.356;2023-02-01T00:11:52;7.00;99.90
40822;DHT22;26542;50.836;5.356;2023-02-01T00:14:18;7.10;99.90
40822;DHT22;26542;50.836;5.356;2023-02-01T00:16:44;7.10;99.90
40822;DHT22;26542;50.836;5.356;2023-02-01T00:19:11;7.10;99.90
40822;DHT22;26542;50.836;5.356;2023-02-01T00:21:38;7.20;99.90
40822;DHT22;26542;50.836;5.356;2023-02-01T00:24:04;7.20;99.90
40822;DHT22;26542;50.836;5.356;2023-02-01T00:26:32;7.20;99.90
40822;DHT22;26542;50.836;5.356;2023-02-01T00:28:59;7.30;99.90
40822;DHT22;26542;50.836;5.356;2023-02-01T00:31:26;7.30;99.90
40822;DHT22;26542;50.836;5.356;2023-02-01T00:33:52;7.40;99.90
40822;DHT22;26542;50.836;5.356;2023-02-01T00:36:17;7.40;99.90
40822;DHT22;26542;50.836;5.356;2023-02-01T00:38:43;7.40;99.90
40822;DHT22;26542;50.836;5.356;2023-02-01T00:41:14;7.30;99.90
40822;DHT22;26542;50.836;5.356;2023-02-01T00:43:41;7.20;99.90
40822;DHT22;26542;50.836;5.356;2023-02-01T00:46:07;7.20;99.90
40822;DHT22;26542;50.836;5.356;2023-02-01T00:48:33;7.20;99.90
40822;DHT22;26542;50.836;5.356;2023-02-01T00:51:03;7.20;99.90
40822;DHT22;26542;50.836;5.356;2023-02-01T00:53:30;7.20;99.90
40822;DHT22;26542;50.836;5.356;2023-02-01T00:55:56;7.20;99.90
40822;DHT22;26542;50.836;5.356;2023-02-01T00:58:22;7.20;99.90
40822;DHT22;26542;50.836;5.356;2023-02-01T01:00:49;7.40;99.90
40822;DHT22;26542;50.836;5.356;2023-02-01T01:03:15;7.40;99.90
40822;DHT22;26542;50.836;5.356;2023-02-01T01:05:45;7.50;99.90
40822;DHT22;26542;50.836;5.356;2023-02-01T01:08:11;7.50;99.90
40822;DHT22;26542;50.836;5.356;2023-02-01T01:10:37;7.40;99.90
40822;DHT22;26542;50.836;5.356;2023-02-01T01:13:02;7.40;99.90
40822;DHT22;26542;50.836;5.356;2023-02-01T01:15:28;7.40;99.90
40822;DHT22;26542;50.836;5.356;2023-02-01T01:17:54;7.40;99.90
40822;DHT22;26542;50.836;5.356;2023-02-01T01:20:19;7.40;99.90
40822;DHT22;26542;50.836;5.356;2023-02-01T01:22:47;7.40;99.90
40822;DHT22;26542;50.836;5.356;2023-02-01T01:25:14;7.40;99.90
40822;DHT22;26542;50.836;5.356;2023-02-01T01:27:40;7.40;99.90
40822;DHT22;26542;50.836;5.356;2023-02-01T01:30:06;7.40;99.90
40822;DHT22;26542;50.836;5.356;2023-02-01T01:32:33;7.40;99.90
40822;DHT22;26542;50.836;5.356;2023-02-01T01:34:58;7.30;99.90
40822;DHT22;26542;50.836;5.356;2023-02-01T01:37:24;7.40;99.90
40822;DHT22;26542;50.836;5.356;2023-02-01T01:39:50;7.40;99.90
40822;DHT22;26542;50.836;5.356;2023-02-01T01:42:15;7.30;99.90
40822;DHT22;26542;50.836;5.356;2023-02-01T01:47:27;7.50;99.90
40822;DHT22;26542;50.836;5.356;2023-02-01T01:49:54;7.60;99.90
40822;DHT22;26542;50.836;5.356;2023-02-01T01:52:20;7.60;99.90
40822;DHT22;26542;50.836;5.356;2023-02-01T01:54:50;7.60;99.90
40822;DHT22;26542;50.836;5.356;2023-02-01T01:57:27;7.50;99.90
40822;DHT22;26542;50.836;5.356;2023-02-01T02:00:01;7.60;99.90
40822;DHT22;26542;50.836;5.356;2023-02-01T02:02:28;7.50;99.90
40822;DHT22;26542;50.836;5.356;2023-02-01T02:04:54;7.50;99.90
40822;DHT22;26542;50.836;5.356;2023-02-01T02:07:32;7.50;99.90
40822;DHT22;26542;50.836;5.356;2023-02-01T02:10:01;7.50;99.90
40822;DHT22;26542;50.836;5.356;2023-02-01T02:12:27;7.50;99.90
40822;DHT22;26542;50.836;5.356;2023-02-01T02:14:53;7.40;99.90
40822;DHT22;26542;50.836;5.356;2023-02-01T02:20:30;7.40;99.90
40822;DHT22;26542;50.836;5.356;2023-02-01T02:28:56;7.30;99.90
40822;DHT22;26542;50.836;5.356;2023-02-01T02:53:35;7.50;99.90
40822;DHT22;26542;50.836;5.356;2023-02-01T02:56:23;7.50;99.90
40822;DHT22;26542;50.836;5.356;2023-02-01T02:59:13;7.40;99.90
40822;DHT22;26542;50.836;5.356;2023-02-01T03:01:59;7.30;99.90
40822;DHT22;26542;50.836;5.356;2023-02-01T03:04:44;7.40;99.90
40822;DHT22;26542;50.836;5.356;2023-02-01T03:07:15;7.40;99.90
40822;DHT22;26542;50.836;5.356;2023-02-01T03:10:03;7.30;99.90
40822;DHT22;26542;50.836;5.356;2023-02-01T03:12:34;7.30;99.90
40822;DHT22;26542;50.836;5.356;2023-02-01T03:18:01;7.20;99.90
40822;DHT22;26542;50.836;5.356;2023-02-01T03:20:30;7.10;99.90
40822;DHT22;26542;50.836;5.356;2023-02-01T03:22:58;7.00;99.90
40822;DHT22;26542;50.836;5.356;2023-02-01T03:25:28;7.00;99.90
40822;DHT22;26542;50.836;5.356;2023-02-01T03:28:01;7.00;99.90
40822;DHT22;26542;50.836;5.356;2023-02-01T03:30:40;7.00;99.90
40822;DHT22;26542;50.836;5.356;2023-02-01T03:33:14;7.10;99.90
40822;DHT22;26542;50.836;5.356;2023-02-01T03:38:52;6.90;99.90
40822;DHT22;26542;50.836;5.356;2023-02-01T03:49:43;6.80;99.90
40822;DHT22;26542;50.836;5.356;2023-02-01T03:52:18;6.70;99.90
40822;DHT22;26542;50.836;5.356;2023-02-01T03:54:46;6.80;99.90
40822;DHT22;26542;50.836;5.356;2023-02-01T03:57:14;6.60;99.90
40822;DHT22;26542;50.836;5.356;2023-02-01T03:59:44;6.70;99.90
40822;DHT22;26542;50.836;5.356;2023-02-01T04:02:11;6.60;99.90
40822;DHT22;26542;50.836;5.356;2023-02-01T04:04:37;6.60;99.90
40822;DHT22;26542;50.836;5.356;2023-02-01T04:07:03;6.60;99.90
40822;DHT22;26542;50.836;5.356;2023-02-01T04:09:29;6.60;99.90
40822;DHT22;26542;50.836;5.356;2023-02-01T04:11:54;6.50;99.90
40822;DHT22;26542;50.836;5.356;2023-02-01T04:14:20;6.50;99.90
40822;DHT22;26542;50.836;5.356;2023-02-01T04:16:46;6.50;99.90
40822;DHT22;26542;50.836;5.356;2023-02-01T04:19:12;6.50;99.90
40822;DHT22;26542;50.836;5.356;2023-02-01T04:21:38;6.40;99.90
40822;DHT22;26542;50.836;5.356;2023-02-01T04:24:04;6.40;99.90
40822;DHT22;26542;50.836;5.356;2023-02-01T04:26:30;6.30;99.90
40822;DHT22;26542;50.836;5.356;2023-02-01T04:28:55;6.30;99.90
40822;DHT22;26542;50.836;5.356;2023-02-01T04:31:21;6.20;99.90
40822;DHT22;26542;50.836;5.356;2023-02-01T04:33:51;6.20;99.90
40822;DHT22;26542;50.836;5.356;2023-02-01T04:36:19;6.20;99.90
40822;DHT22;26542;50.836;5.356;2023-02-01T04:38:51;6.20;99.90
40822;DHT22;26542;50.836;5.356;2023-02-01T04:41:17;6.20;99.90
40822;DHT22;26542;50.836;5.356;2023-02-01T04:43:49;6.20;99.90
40822;DHT22;26542;50.836;5.356;2023-02-01T04:46:16;6.20;99.90
40822;DHT22;26542;50.836;5.356;2023-02-01T04:48:42;6.20;99.90
40822;DHT22;26542;50.836;5.356;2023-02-01T04:51:08;6.10;99.90
40822;DHT22;26542;50.836;5.356;2023-02-01T04:53:35;6.10;99.90
40822;DHT22;26542;50.836;5.356;2023-02-01T04:56:01;6.10;99.90
40822;DHT22;26542;50.836;5.356;2023-02-01T04:58:27;6.10;99.90
40822;DHT22;26542;50.836;5.356;2023-02-01T05:00:53;6.40;99.90
40822;DHT22;26542;50.836;5.356;2023-02-01T05:03:19;6.00;99.90
40822;DHT22;26542;50.836;5.356;2023-02-01T05:05:46;6.10;99.90
40822;DHT22;26542;50.836;5.356;2023-02-01T05:08:12;6.00;99.90
40822;DHT22;26542;50.836;5.356;2023-02-01T05:10:38;6.00;99.90
40822;DHT22;26542;50.836;5.356;2023-02-01T05:13:03;6.00;99.90
40822;DHT22;26542;50.836;5.356;2023-02-01T05:15:49;6.10;99.90
40822;DHT22;26542;50.836;5.356;2023-02-01T05:18:15;6.10;99.90
40822;DHT22;26542;50.836;5.356;2023-02-01T05:20:41;6.10;99.90
40822;DHT22;26542;50.836;5.356;2023-02-01T05:23:07;6.00;99.90
40822;DHT22;26542;50.836;5.356;2023-02-01T05:25:33;5.90;99.90
40822;DHT22;26542;50.836;5.356;2023-02-01T05:27:59;5.90;99.90
40822;DHT22;26542;50.836;5.356;2023-02-01T05:30:25;6.00;99.90
40822;DHT22;26542;50.836;5.356;2023-02-01T05:32:52;5.90;99.90
40822;DHT22;26542;50.836;5.356;2023-02-01T05:35:18;5.90;99.90
40822;DHT22;26542;50.836;5.356;2023-02-01T05:37:44;5.90;99.90
40822;DHT22;26542;50.836;5.356;2023-02-01T05:40:10;5.90;99.90
40822;DHT22;26542;50.836;5.356;2023-02-01T05:42:36;5.80;99.90
40822;DHT22;26542;50.836;5.356;2023-02-01T05:45:02;5.80;99.90
40822;DHT22;26542;50.836;5.356;2023-02-01T05:47:28;5.80;99.90
40822;DHT22;26542;50.836;5.356;2023-02-01T05:49:54;5.80;99.90
40822;DHT22;26542;50.836;5.356;2023-02-01T05:52:19;5.80;99.90
40822;DHT22;26542;50.836;5.356;2023-02-01T05:54:46;5.80;99.90
40822;DHT22;26542;50.836;5.356;2023-02-01T05:57:14;5.80;99.90
40822;DHT22;26542;50.836;5.356;2023-02-01T05:59:40;5.70;99.90
40822;DHT22;26542;50.836;5.356;2023-02-01T06:02:10;5.70;99.90
40822;DHT22;26542;50.836;5.356;2023-02-01T06:04:36;5.70;99.90
40822;DHT22;26542;50.836;5.356;2023-02-01T06:07:02;5.70;99.90
40822;DHT22;26542;50.836;5.356;2023-02-01T06:09:28;5.60;99.90
40822;DHT22;26542;50.836;5.356;2023-02-01T06:11:54;5.60;99.90
40822;DHT22;26542;50.836;5.356;2023-02-01T06:14:20;5.60;99.90
40822;DHT22;26542;50.836;5.356;2023-02-01T06:16:46;5.60;99.90
40822;DHT22;26542;50.836;5.356;2023-02-01T06:19:12;5.50;99.90
40822;DHT22;26542;50.836;5.356;2023-02-01T06:21:38;5.50;99.90
40822;DHT22;26542;50.836;5.356;2023-02-01T06:24:04;5.50;99.90
40822;DHT22;26542;50.836;5.356;2023-02-01T06:26:31;5.50;99.90
40822;DHT22;26542;50.836;5.356;2023-02-01T06:28:57;5.40;99.90
40822;DHT22;26542;50.836;5.356;2023-02-01T06:31:23;5.40;99.90
40822;DHT22;26542;50.836;5.356;2023-02-01T06:33:48;5.30;99.90
40822;DHT22;26542;50.836;5.356;2023-02-01T06:36:15;5.30;99.90
40822;DHT22;26542;50.836;5.356;2023-02-01T06:38:41;5.30;99.90
40822;DHT22;26542;50.836;5.356;2023-02-01T06:41:07;5.20;99.90
40822;DHT22;26542;50.836;5.356;2023-02-01T06:43:33;5.20;99.90
40822;DHT22;26542;50.836;5.356;2023-02-01T06:46:04;5.30;99.90
40822;DHT22;26542;50.836;5.356;2023-02-01T06:48:30;5.30;99.90
40822;DHT22;26542;50.836;5.356;2023-02-01T06:50:56;5.30;99.90
40822;DHT22;26542;50.836;5.356;2023-02-01T06:53:22;5.30;99.90
40822;DHT22;26542;50.836;5.356;2023-02-01T06:55:55;5.30;99.90
40822;DHT22;26542;50.836;5.356;2023-02-01T06:58:22;5.30;99.90
40822;DHT22;26542;50.836;5.356;2023-02-01T07:00:48;5.20;99.90
40822;DHT22;26542;50.836;5.356;2023-02-01T07:03:14;5.20;99.90
40822;DHT22;26542;50.836;5.356;2023-02-01T07:05:39;5.20;99.90
40822;DHT22;26542;50.836;5.356;2023-02-01T07:08:05;5.20;99.90
40822;DHT22;26542;50.836;5.356;2023-02-01T07:10:31;5.10;99.90
40822;DHT22;26542;50.836;5.356;2023-02-01T07:13:00;5.20;99.90
40822;DHT22;26542;50.836;5.356;2023-02-01T07:15:25;5.20;99.90
40822;DHT22;26542;50.836;5.356;2023-02-01T07:17:53;5.20;99.90
40822;DHT22;26542;50.836;5.356;2023-02-01T07:20:19;5.10;99.90
40822;DHT22;26542;50.836;5.356;2023-02-01T07:22:45;5.10;99.90
40822;DHT22;26542;50.836;5.356;2023-02-01T07:25:10;5.10;99.90
40822;DHT22;26542;50.836;5.356;2023-02-01T07:27:36;5.10;99.90
40822;DHT22;26542;50.836;5.356;2023-02-01T07:30:05;5.10;99.90
40822;DHT22;26542;50.836;5.356;2023-02-01T07:32:31;5.20;99.90
40822;DHT22;26542;50.836;5.356;2023-02-01T07:34:58;5.20;99.90
40822;DHT22;26542;50.836;5.356;2023-02-01T07:37:24;5.20;99.90
40822;DHT22;26542;50.836;5.356;2023-02-01T07:39:50;5.20;99.90
40822;DHT22;26542;50.836;5.356;2023-02-01T07:42:17;5.20;99.90
40822;DHT22;26542;50.836;5.356;2023-02-01T07:44:42;5.20;99.90
40822;DHT22;26542;50.836;5.356;2023-02-01T07:47:08;5.10;99.90
40822;DHT22;26542;50.836;5.356;2023-02-01T07:49:34;5.20;99.90
40822;DHT22;26542;50.836;5.356;2023-02-01T07:52:00;5.20;99.90
40822;DHT22;26542;50.836;5.356;2023-02-01T07:54:25;5.20;99.90
40822;DHT22;26542;50.836;5.356;2023-02-01T07:56:51;5.20;99.90
40822;DHT22;26542;50.836;5.356;2023-02-01T07:59:17;5.10;99.90
40822;DHT22;26542;50.836;5.356;2023-02-01T08:01:43;5.20;99.90
40822;DHT22;26542;50.836;5.356;2023-02-01T08:04:11;5.20;99.90
40822;DHT22;26542;50.836;5.356;2023-02-01T08:06:37;5.20;99.90
40822;DHT22;26542;50.836;5.356;2023-02-01T08:09:04;5.20;99.90
40822;DHT22;26542;50.836;5.356;2023-02-01T08:11:31;5.30;99.90
40822;DHT22;26542;50.836;5.356;2023-02-01T08:13:58;5.20;99.90
40822;DHT22;26542;50.836;5.356;2023-02-01T08:16:23;5.30;99.90
40822;DHT22;26542;50.836;5.356;2023-02-01T08:18:49;5.30;99.90
40822;DHT22;26542;50.836;5.356;2023-02-01T08:21:18;5.30;99.90
40822;DHT22;26542;50.836;5.356;2023-02-01T08:23:45;5.40;99.90
40822;DHT22;26542;50.836;5.356;2023-02-01T08:26:17;5.40;99.90
40822;DHT22;26542;50.836;5.356;2023-02-01T08:28:46;5.50;99.90
40822;DHT22;26542;50.836;5.356;2023-02-01T08:31:14;5.60;99.90
40822;DHT22;26542;50.836;5.356;2023-02-01T08:33:41;5.60;99.90
40822;DHT22;26542;50.836;5.356;2023-02-01T08:36:09;5.70;99.90
40822;DHT22;26542;50.836;5.356;2023-02-01T08:38:36;5.80;99.90
40822;DHT22;26542;50.836;5.356;2023-02-01T08:41:11;5.80;99.90
40822;DHT22;26542;50.836;5.356;2023-02-01T08:43:37;5.90;99.90
40822;DHT22;26542;50.836;5.356;2023-02-01T08:46:04;5.90;99.90
40822;DHT22;26542;50.836;5.356;2023-02-01T08:48:31;5.90;99.90
40822;DHT22;26542;50.836;5.356;2023-02-01T08:50:57;6.00;99.90
40822;DHT22;26542;50.836;5.356;2023-02-01T08:53:25;6.00;99.90
40822;DHT22;26542;50.836;5.356;2023-02-01T08:55:51;6.00;99.90
40822;DHT22;26542;50.836;5.356;2023-02-01T08:58:17;6.00;99.90
40822;DHT22;26542;50.836;5.356;2023-02-01T09:00:43;5.90;99.90
40822;DHT22;26542;50.836;5.356;2023-02-01T09:03:14;6.00;99.90
40822;DHT22;26542;50.836;5.356;2023-02-01T09:05:40;6.00;99.90
40822;DHT22;26542;50.836;5.356;2023-02-01T09:08:06;6.00;99.90
40822;DHT22;26542;50.836;5.356;2023-02-01T09:10:33;6.00;99.90
40822;DHT22;26542;50.836;5.356;2023-02-01T09:12:58;6.10;99.90
40822;DHT22;26542;50.836;5.356;2023-02-01T09:15:24;6.10;99.90
40822;DHT22;26542;50.836;5.356;2023-02-01T09:17:50;6.20;99.90
40822;DHT22;26542;50.836;5.356;2023-02-01T09:20:15;6.20;99.90
40822;DHT22;26542;50.836;5.356;2023-02-01T09:22:41;6.20;99.90
40822;DHT22;26542;50.836;5.356;2023-02-01T09:25:08;6.20;99.90
40822;DHT22;26542;50.836;5.356;2023-02-01T09:27:34;6.20;99.90
40822;DHT22;26542;50.836;5.356;2023-02-01T09:30:00;6.30;99.90
40822;DHT22;26542;50.836;5.356;2023-02-01T09:32:25;6.30;99.90
40822;DHT22;26542;50.836;5.356;2023-02-01T09:34:52;6.30;99.90
40822;DHT22;26542;50.836;5.356;2023-02-01T09:37:18;6.30;99.90
40822;DHT22;26542;50.836;5.356;2023-02-01T09:39:44;6.30;99.90
40822;DHT22;26542;50.836;5.356;2023-02-01T09:47:59;6.50;99.90
40822;DHT22;26542;50.836;5.356;2023-02-01T09:50:37;6.60;99.90
40822;DHT22;26542;50.836;5.356;2023-02-01T09:53:20;6.60;99.90
40822;DHT22;26542;50.836;5.356;2023-02-01T09:55:53;6.70;99.90
40822;DHT22;26542;50.836;5.356;2023-02-01T09:58:27;6.70;99.90
40822;DHT22;26542;50.836;5.356;2023-02-01T10:00:58;6.80;99.90
40822;DHT22;26542;50.836;5.356;2023-02-01T10:03:27;6.80;99.90
40822;DHT22;26542;50.836;5.356;2023-02-01T10:09:46;6.90;99.90
40822;DHT22;26542;50.836;5.356;2023-02-01T10:12:48;7.00;99.90
40822;DHT22;26542;50.836;5.356;2023-02-01T10:15:50;7.10;99.90
40822;DHT22;26542;50.836;5.356;2023-02-01T10:27:01;7.30;99.90
40822;DHT22;26542;50.836;5.356;2023-02-01T10:29:34;7.40;99.90
40822;DHT22;26542;50.836;5.356;2023-02-01T10:32:02;7.50;99.90
40822;DHT22;26542;50.836;5.356;2023-02-01T10:34:31;7.50;99.90
40822;DHT22;26542;50.836;5.356;2023-02-01T10:37:11;7.60;99.90
40822;DHT22;26542;50.836;5.356;2023-02-01T10:39:39;7.70;99.90
40822;DHT22;26542;50.836;5.356;2023-02-01T10:42:04;7.80;99.90
40822;DHT22;26542;50.836;5.356;2023-02-01T10:44:31;7.90;99.90
40822;DHT22;26542;50.836;5.356;2023-02-01T10:47:02;8.00;99.90
40822;DHT22;26542;50.836;5.356;2023-02-01T10:49:41;8.00;99.90
40822;DHT22;26542;50.836;5.356;2023-02-01T10:52:33;8.10;99.90
40822;DHT22;26542;50.836;5.356;2023-02-01T10:58:28;8.20;99.90
40822;DHT22;26542;50.836;5.356;2023-02-01T11:01:02;8.30;99.90
40822;DHT22;26542;50.836;5.356;2023-02-01T11:03:54;8.30;99.90
40822;DHT22;26542;50.836;5.356;2023-02-01T11:06:27;8.30;99.90
40822;DHT22;26542;50.836;5.356;2023-02-01T11:08:56;8.40;99.90
40822;DHT22;26542;50.836;5.356;2023-02-01T11:11:22;8.50;99.90
40822;DHT22;26542;50.836;5.356;2023-02-01T11:14:01;8.60;99.90
40822;DHT22;26542;50.836;5.356;2023-02-01T11:16:38;8.60;99.90
40822;DHT22;26542;50.836;5.356;2023-02-01T11:19:04;8.60;99.90
40822;DHT22;26542;50.836;5.356;2023-02-01T11:21:31;8.80;99.90
40822;DHT22;26542;50.836;5.356;2023-02-01T11:24:02;8.80;99.90
40822;DHT22;26542;50.836;5.356;2023-02-01T11:26:29;8.90;99.90
40822;DHT22;26542;50.836;5.356;2023-02-01T11:29:04;9.00;99.90
40822;DHT22;26542;50.836;5.356;2023-02-01T11:31:30;9.10;99.90
40822;DHT22;26542;50.836;5.356;2023-02-01T11:34:07;9.10;99.90
40822;DHT22;26542;50.836;5.356;2023-02-01T11:36:35;9.00;99.90
40822;DHT22;26542;50.836;5.356;2023-02-01T11:41:54;9.10;99.90
40822;DHT22;26542;50.836;5.356;2023-02-01T11:44:45;9.10;99.90
40822;DHT22;26542;50.836;5.356;2023-02-01T11:47:38;9.30;99.90
40822;DHT22;26542;50.836;5.356;2023-02-01T11:50:17;9.40;99.90
40822;DHT22;26542;50.836;5.356;2023-02-01T11:56:02;9.40;99.90
40822;DHT22;26542;50.836;5.356;2023-02-01T12:06:44;9.50;99.90
40822;DHT22;26542;50.836;5.356;2023-02-01T12:12:30;9.70;99.90
40822;DHT22;26542;50.836;5.356;2023-02-01T12:15:28;10.00;99.90
40822;DHT22;26542;50.836;5.356;2023-02-01T12:21:26;9.70;99.90
40822;DHT22;26542;50.836;5.356;2023-02-01T12:44:50;9.70;99.90
40822;DHT22;26542;50.836;5.356;2023-02-01T12:47:20;9.70;99.90
40822;DHT22;26542;50.836;5.356;2023-02-01T12:49:59;9.80;99.90
40822;DHT22;26542;50.836;5.356;2023-02-01T12:52:39;9.80;99.90
40822;DHT22;26542;50.836;5.356;2023-02-01T12:55:22;9.60;99.90
40822;DHT22;26542;50.836;5.356;2023-02-01T12:58:07;9.50;99.90
40822;DHT22;26542;50.836;5.356;2023-02-01T13:00:46;9.30;99.90
40822;DHT22;26542;50.836;5.356;2023-02-01T13:03:29;9.30;99.90
40822;DHT22;26542;50.836;5.356;2023-02-01T13:06:16;9.30;99.90
40822;DHT22;26542;50.836;5.356;2023-02-01T13:08:54;9.20;99.90
40822;DHT22;26542;50.836;5.356;2023-02-01T13:11:29;9.20;99.90
40822;DHT22;26542;50.836;5.356;2023-02-01T13:16:49;9.30;99.90
40822;DHT22;26542;50.836;5.356;2023-02-01T13:19:44;9.30;99.90
40822;DHT22;26542;50.836;5.356;2023-02-01T13:22:31;9.30;99.90
40822;DHT22;26542;50.836;5.356;2023-02-01T13:25:13;9.40;99.90
40822;DHT22;26542;50.836;5.356;2023-02-01T13:27:39;9.40;99.90
40822;DHT22;26542;50.836;5.356;2023-02-01T13:30:20;9.40;99.90
40822;DHT22;26542;50.836;5.356;2023-02-01T13:33:26;9.40;99.90
40822;DHT22;26542;50.836;5.356;2023-02-01T13:41:28;9.40;99.90
40822;DHT22;26542;50.836;5.356;2023-02-01T13:44:10;9.50;99.90
40822;DHT22;26542;50.836;5.356;2023-02-01T13:46:46;9.50;99.90
40822;DHT22;26542;50.836;5.356;2023-02-01T13:49:26;9.50;99.90
40822;DHT22;26542;50.836;5.356;2023-02-01T13:51:55;9.60;99.90
40822;DHT22;26542;50.836;5.356;2023-02-01T13:54:38;9.50;99.90
40822;DHT22;26542;50.836;5.356;2023-02-01T13:57:13;9.50;99.90
40822;DHT22;26542;50.836;5.356;2023-02-01T13:59:51;9.40;99.90
40822;DHT22;26542;50.836;5.356;2023-02-01T14:10:53;9.40;99.90
40822;DHT22;26542;50.836;5.356;2023-02-01T14:18:54;9.60;99.90
40822;DHT22;26542;50.836;5.356;2023-02-01T14:21:31;9.60;99.90
40822;DHT22;26542;50.836;5.356;2023-02-01T14:26:47;9.60;99.90
40822;DHT22;26542;50.836;5.356;2023-02-01T14:31:43;9.60;99.90
40822;DHT22;26542;50.836;5.356;2023-02-01T14:34:31;9.60;99.90
40822;DHT22;26542;50.836;5.356;2023-02-01T14:37:02;9.70;99.90
40822;DHT22;26542;50.836;5.356;2023-02-01T14:39:41;9.60;99.90
40822;DHT22;26542;50.836;5.356;2023-02-01T14:44:45;9.70;99.70
40822;DHT22;26542;50.836;5.356;2023-02-01T14:47:27;9.70;99.90
40822;DHT22;26542;50.836;5.356;2023-02-01T14:50:17;9.70;99.90
40822;DHT22;26542;50.836;5.356;2023-02-01T14:52:47;9.70;99.90
40822;DHT22;26542;50.836;5.356;2023-02-01T14:55:25;9.70;99.90
40822;DHT22;26542;50.836;5.356;2023-02-01T14:57:54;9.70;99.90
40822;DHT22;26542;50.836;5.356;2023-02-01T15:00:25;9.70;99.90
40822;DHT22;26542;50.836;5.356;2023-02-01T15:02:52;9.80;99.90
40822;DHT22;26542;50.836;5.356;2023-02-01T15:05:44;9.70;99.90
40822;DHT22;26542;50.836;5.356;2023-02-01T15:08:24;9.70;99.90
40822;DHT22;26542;50.836;5.356;2023-02-01T15:10:52;9.80;99.90
40822;DHT22;26542;50.836;5.356;2023-02-01T15:13:24;9.80;99.90
40822;DHT22;26542;50.836;5.356;2023-02-01T15:16:14;9.70;99.90
40822;DHT22;26542;50.836;5.356;2023-02-01T15:18:41;9.60;99.90
40822;DHT22;26542;50.836;5.356;2023-02-01T15:21:18;9.60;99.90
40822;DHT22;26542;50.836;5.356;2023-02-01T15:23:45;9.60;99.90
40822;DHT22;26542;50.836;5.356;2023-02-01T15:26:34;9.60;99.90
40822;DHT22;26542;50.836;5.356;2023-02-01T15:29:00;9.60;99.90
40822;DHT22;26542;50.836;5.356;2023-02-01T15:31:47;9.70;99.90
40822;DHT22;26542;50.836;5.356;2023-02-01T15:34:13;9.70;99.90
40822;DHT22;26542;50.836;5.356;2023-02-01T15:36:41;9.70;99.90
40822;DHT22;26542;50.836;5.356;2023-02-01T15:39:24;9.60;99.90
40822;DHT22;26542;50.836;5.356;2023-02-01T15:42:00;9.60;99.90
40822;DHT22;26542;50.836;5.356;2023-02-01T15:44:44;9.60;99.90
40822;DHT22;26542;50.836;5.356;2023-02-01T15:47:25;9.60;99.90
40822;DHT22;26542;50.836;5.356;2023-02-01T15:49:54;9.50;99.90
40822;DHT22;26542;50.836;5.356;2023-02-01T15:52:39;9.40;99.90
40822;DHT22;26542;50.836;5.356;2023-02-01T15:55:37;9.30;99.90
40822;DHT22;26542;50.836;5.356;2023-02-01T15:58:17;9.20;99.90
40822;DHT22;26542;50.836;5.356;2023-02-01T16:00:52;9.20;99.90
40822;DHT22;26542;50.836;5.356;2023-02-01T16:05:58;9.10;99.90
40822;DHT22;26542;50.836;5.356;2023-02-01T16:08:26;9.00;99.90
40822;DHT22;26542;50.836;5.356;2023-02-01T16:10:59;9.10;99.90
40822;DHT22;26542;50.836;5.356;2023-02-01T16:13:26;9.00;99.90
40822;DHT22;26542;50.836;5.356;2023-02-01T16:15:52;9.00;99.90
40822;DHT22;26542;50.836;5.356;2023-02-01T16:18:17;8.90;99.90
40822;DHT22;26542;50.836;5.356;2023-02-01T16:20:43;8.90;99.90
40822;DHT22;26542;50.836;5.356;2023-02-01T16:23:10;8.90;99.90
40822;DHT22;26542;50.836;5.356;2023-02-01T16:25:36;8.80;99.90
40822;DHT22;26542;50.836;5.356;2023-02-01T16:28:03;8.80;99.90
40822;DHT22;26542;50.836;5.356;2023-02-01T16:30:30;8.80;99.90
40822;DHT22;26542;50.836;5.356;2023-02-01T16:32:58;8.90;99.90
40822;DHT22;26542;50.836;5.356;2023-02-01T16:35:30;9.00;99.90
40822;DHT22;26542;50.836;5.356;2023-02-01T16:38:20;9.00;99.90
40822;DHT22;26542;50.836;5.356;2023-02-01T16:40:48;8.90;99.90
40822;DHT22;26542;50.836;5.356;2023-02-01T16:43:22;8.90;99.90
40822;DHT22;26542;50.836;5.356;2023-02-01T16:45:49;8.80;99.90
40822;DHT22;26542;50.836;5.356;2023-02-01T16:48:50;8.80;99.90
40822;DHT22;26542;50.836;5.356;2023-02-01T16:51:16;8.80;99.90
40822;DHT22;26542;50.836;5.356;2023-02-01T16:53:43;8.80;99.90
40822;DHT22;26542;50.836;5.356;2023-02-01T16:56:17;8.80;99.90
40822;DHT22;26542;50.836;5.356;2023-02-01T16:58:43;8.80;99.90
40822;DHT22;26542;50.836;5.356;2023-02-01T17:01:11;8.90;99.90
40822;DHT22;26542;50.836;5.356;2023-02-01T17:03:38;8.90;99.90
40822;DHT22;26542;50.836;5.356;2023-02-01T17:06:08;8.80;99.90
40822;DHT22;26542;50.836;5.356;2023-02-01T17:08:36;8.80;99.90
40822;DHT22;26542;50.836;5.356;2023-02-01T17:11:04;8.70;99.90
40822;DHT22;26542;50.836;5.356;2023-02-01T17:13:31;8.80;99.90
40822;DHT22;26542;50.836;5.356;2023-02-01T17:18:22;8.80;99.90
40822;DHT22;26542;50.836;5.356;2023-02-01T17:20:50;8.80;99.90
40822;DHT22;26542;50.836;5.356;2023-02-01T17:23:18;8.70;99.90
40822;DHT22;26542;50.836;5.356;2023-02-01T17:25:44;8.60;99.90
40822;DHT22;26542;50.836;5.356;2023-02-01T17:28:10;8.60;99.90
40822;DHT22;26542;50.836;5.356;2023-02-01T17:30:37;8.60;99.90
40822;DHT22;26542;50.836;5.356;2023-02-01T17:33:03;8.50;99.90
40822;DHT22;26542;50.836;5.356;2023-02-01T17:35:29;8.60;99.90
40822;DHT22;26542;50.836;5.356;2023-02-01T17:37:57;8.50;99.90
40822;DHT22;26542;50.836;5.356;2023-02-01T17:40:23;8.50;99.90
40822;DHT22;26542;50.836;5.356;2023-02-01T17:42:49;8.50;99.90
40822;DHT22;26542;50.836;5.356;2023-02-01T17:45:34;8.50;99.90
40822;DHT22;26542;50.836;5.356;2023-02-01T17:48:04;8.50;99.90
40822;DHT22;26542;50.836;5.356;2023-02-01T17:50:31;8.40;99.90
40822;DHT22;26542;50.836;5.356;2023-02-01T17:52:58;8.40;99.90
40822;DHT22;26542;50.836;5.356;2023-02-01T17:55:24;8.30;99.90
40822;DHT22;26542;50.836;5.356;2023-02-01T17:57:50;8.30;99.90
40822;DHT22;26542;50.836;5.356;2023-02-01T18:00:18;8.30;99.90
40822;DHT22;26542;50.836;5.356;2023-02-01T18:02:44;8.30;99.90
40822;DHT22;26542;50.836;5.356;2023-02-01T18:05:26;8.30;99.90
40822;DHT22;26542;50.836;5.356;2023-02-01T18:07:53;8.30;99.90
40822;DHT22;26542;50.836;5.356;2023-02-01T18:10:18;8.40;99.90
40822;DHT22;26542;50.836;5.356;2023-02-01T18:12:44;8.40;99.90
40822;DHT22;26542;50.836;5.356;2023-02-01T18:15:19;8.40;99.90
40822;DHT22;26542;50.836;5.356;2023-02-01T18:17:45;8.40;99.90
40822;DHT22;26542;50.836;5.356;2023-02-01T18:20:20;8.30;99.90
40822;DHT22;26542;50.836;5.356;2023-02-01T18:22:47;8.30;99.90
40822;DHT22;26542;50.836;5.356;2023-02-01T18:25:24;8.30;99.90
40822;DHT22;26542;50.836;5.356;2023-02-01T18:27:52;8.40;99.90
40822;DHT22;26542;50.836;5.356;2023-02-01T18:30:23;8.40;99.90
40822;DHT22;26542;50.836;5.356;2023-02-01T18:32:49;8.30;99.90